SFC Newsletters

Refer to "Latest Club News" on the home page

Home The Club The Windsock Newsletter

Latest Metar/Taf

[source: ADDS]
METAR
FACT 261000Z 20004KT 160V240 CAVOK 17/06 Q1017 NOSIG =
TAF
TAF FACT 260400Z 2606/2712 VRB03KT CAVOK PROB30 TEMPO 2700/2706 0800 FG FM270600 32006KT 9999 FEW020 TX19/2612ZTN04/2606Z =
SR / SS: 05:50 / 15:44 UTC (FASH 2017-06-26)

Quicklinks

Club Events Calendar
FASH Weather 7-Day Forecast